sensor_id;sensor_type;location;lat;lon;timestamp;P1;durP1;ratioP1;P2;durP2;ratioP2
43487;SDS011;29078;41.932;25.554;2023-04-03T00:01:18;7.85;;;5.30;;
43487;SDS011;29078;41.932;25.554;2023-04-03T00:03:44;8.40;;;5.60;;
43487;SDS011;29078;41.932;25.554;2023-04-03T00:06:11;12.18;;;6.95;;
43487;SDS011;29078;41.932;25.554;2023-04-03T00:08:37;11.13;;;6.45;;
43487;SDS011;29078;41.932;25.554;2023-04-03T00:11:03;8.35;;;5.43;;
43487;SDS011;29078;41.932;25.554;2023-04-03T00:13:30;9.25;;;5.13;;
43487;SDS011;29078;41.932;25.554;2023-04-03T00:15:56;6.43;;;4.20;;
43487;SDS011;29078;41.932;25.554;2023-04-03T00:18:22;6.38;;;4.07;;
43487;SDS011;29078;41.932;25.554;2023-04-03T00:20:47;8.00;;;3.88;;
43487;SDS011;29078;41.932;25.554;2023-04-03T00:23:13;6.85;;;3.33;;
43487;SDS011;29078;41.932;25.554;2023-04-03T00:25:38;5.78;;;3.45;;
43487;SDS011;29078;41.932;25.554;2023-04-03T00:28:04;6.38;;;3.90;;
43487;SDS011;29078;41.932;25.554;2023-04-03T00:30:30;4.97;;;3.10;;
43487;SDS011;29078;41.932;25.554;2023-04-03T00:32:56;6.43;;;3.25;;
43487;SDS011;29078;41.932;25.554;2023-04-03T00:35:21;3.92;;;3.15;;
43487;SDS011;29078;41.932;25.554;2023-04-03T00:37:48;4.30;;;3.00;;
43487;SDS011;29078;41.932;25.554;2023-04-03T00:40:16;3.83;;;2.47;;
43487;SDS011;29078;41.932;25.554;2023-04-03T00:42:42;4.70;;;2.67;;
43487;SDS011;29078;41.932;25.554;2023-04-03T00:47:42;3.72;;;2.33;;
43487;SDS011;29078;41.932;25.554;2023-04-03T00:50:08;3.35;;;2.30;;
43487;SDS011;29078;41.932;25.554;2023-04-03T00:52:34;4.78;;;2.55;;
43487;SDS011;29078;41.932;25.554;2023-04-03T00:55:04;3.47;;;2.38;;
43487;SDS011;29078;41.932;25.554;2023-04-03T00:57:32;2.80;;;2.45;;
43487;SDS011;29078;41.932;25.554;2023-04-03T01:00:05;3.33;;;2.10;;
43487;SDS011;29078;41.932;25.554;2023-04-03T01:02:34;6.38;;;3.30;;
43487;SDS011;29078;41.932;25.554;2023-04-03T01:05:00;4.20;;;2.47;;
43487;SDS011;29078;41.932;25.554;2023-04-03T01:07:27;4.65;;;2.53;;
43487;SDS011;29078;41.932;25.554;2023-04-03T01:09:56;5.18;;;3.08;;
43487;SDS011;29078;41.932;25.554;2023-04-03T01:12:28;3.13;;;2.53;;
43487;SDS011;29078;41.932;25.554;2023-04-03T01:15:19;4.00;;;2.67;;
43487;SDS011;29078;41.932;25.554;2023-04-03T01:17:55;2.72;;;2.20;;
43487;SDS011;29078;41.932;25.554;2023-04-03T01:25:36;3.97;;;2.63;;
43487;SDS011;29078;41.932;25.554;2023-04-03T01:28:08;4.22;;;2.10;;
43487;SDS011;29078;41.932;25.554;2023-04-03T01:30:38;3.65;;;2.05;;
43487;SDS011;29078;41.932;25.554;2023-04-03T01:33:08;4.03;;;2.78;;
43487;SDS011;29078;41.932;25.554;2023-04-03T01:35:34;4.55;;;2.60;;
43487;SDS011;29078;41.932;25.554;2023-04-03T01:37:59;5.45;;;2.47;;
43487;SDS011;29078;41.932;25.554;2023-04-03T01:40:25;6.57;;;2.42;;
43487;SDS011;29078;41.932;25.554;2023-04-03T01:42:51;6.38;;;3.22;;
43487;SDS011;29078;41.932;25.554;2023-04-03T01:45:16;6.18;;;2.80;;
43487;SDS011;29078;41.932;25.554;2023-04-03T01:47:42;4.88;;;2.40;;
43487;SDS011;29078;41.932;25.554;2023-04-03T01:50:07;6.43;;;3.10;;
43487;SDS011;29078;41.932;25.554;2023-04-03T01:52:33;5.43;;;3.50;;
43487;SDS011;29078;41.932;25.554;2023-04-03T01:54:58;5.03;;;3.60;;
43487;SDS011;29078;41.932;25.554;2023-04-03T01:57:24;4.55;;;3.15;;
43487;SDS011;29078;41.932;25.554;2023-04-03T01:59:49;6.15;;;3.80;;
43487;SDS011;29078;41.932;25.554;2023-04-03T02:02:16;7.57;;;4.07;;
43487;SDS011;29078;41.932;25.554;2023-04-03T02:04:41;5.28;;;3.33;;
43487;SDS011;29078;41.932;25.554;2023-04-03T02:07:07;6.43;;;3.83;;
43487;SDS011;29078;41.932;25.554;2023-04-03T02:09:32;7.50;;;3.58;;
43487;SDS011;29078;41.932;25.554;2023-04-03T02:11:58;6.50;;;3.50;;
43487;SDS011;29078;41.932;25.554;2023-04-03T02:14:23;4.85;;;3.65;;
43487;SDS011;29078;41.932;25.554;2023-04-03T02:16:49;6.85;;;3.78;;
43487;SDS011;29078;41.932;25.554;2023-04-03T02:19:15;6.13;;;4.38;;
43487;SDS011;29078;41.932;25.554;2023-04-03T02:21:41;8.18;;;4.68;;
43487;SDS011;29078;41.932;25.554;2023-04-03T02:24:06;6.90;;;4.55;;
43487;SDS011;29078;41.932;25.554;2023-04-03T02:26:32;8.65;;;4.85;;
43487;SDS011;29078;41.932;25.554;2023-04-03T02:28:57;9.40;;;6.13;;
43487;SDS011;29078;41.932;25.554;2023-04-03T02:31:23;8.18;;;5.10;;
43487;SDS011;29078;41.932;25.554;2023-04-03T02:33:49;6.35;;;4.10;;
43487;SDS011;29078;41.932;25.554;2023-04-03T02:36:15;7.70;;;3.95;;
43487;SDS011;29078;41.932;25.554;2023-04-03T02:38:40;10.93;;;4.50;;
43487;SDS011;29078;41.932;25.554;2023-04-03T02:41:07;7.75;;;5.28;;
43487;SDS011;29078;41.932;25.554;2023-04-03T02:43:33;9.85;;;5.60;;
43487;SDS011;29078;41.932;25.554;2023-04-03T02:45:59;11.05;;;5.68;;
43487;SDS011;29078;41.932;25.554;2023-04-03T02:48:25;7.75;;;5.45;;
43487;SDS011;29078;41.932;25.554;2023-04-03T02:50:51;9.88;;;5.00;;
43487;SDS011;29078;41.932;25.554;2023-04-03T02:53:16;6.90;;;5.20;;
43487;SDS011;29078;41.932;25.554;2023-04-03T02:55:42;10.60;;;5.10;;
43487;SDS011;29078;41.932;25.554;2023-04-03T02:58:07;9.15;;;4.97;;
43487;SDS011;29078;41.932;25.554;2023-04-03T03:00:33;6.90;;;5.13;;
43487;SDS011;29078;41.932;25.554;2023-04-03T03:02:58;9.00;;;5.93;;
43487;SDS011;29078;41.932;25.554;2023-04-03T03:05:25;9.32;;;5.05;;
43487;SDS011;29078;41.932;25.554;2023-04-03T03:07:51;9.35;;;7.75;;
43487;SDS011;29078;41.932;25.554;2023-04-03T03:10:18;7.25;;;5.35;;
43487;SDS011;29078;41.932;25.554;2023-04-03T03:12:44;5.95;;;4.55;;
43487;SDS011;29078;41.932;25.554;2023-04-03T03:15:09;5.85;;;4.60;;
43487;SDS011;29078;41.932;25.554;2023-04-03T03:17:35;6.93;;;4.50;;
43487;SDS011;29078;41.932;25.554;2023-04-03T03:20:01;6.95;;;3.70;;
43487;SDS011;29078;41.932;25.554;2023-04-03T03:22:27;5.40;;;3.90;;
43487;SDS011;29078;41.932;25.554;2023-04-03T03:24:53;5.93;;;3.83;;
43487;SDS011;29078;41.932;25.554;2023-04-03T03:27:18;5.47;;;3.45;;
43487;SDS011;29078;41.932;25.554;2023-04-03T03:29:44;4.20;;;3.80;;
43487;SDS011;29078;41.932;25.554;2023-04-03T03:32:09;6.30;;;3.67;;
43487;SDS011;29078;41.932;25.554;2023-04-03T03:34:35;4.38;;;3.45;;
43487;SDS011;29078;41.932;25.554;2023-04-03T03:37:00;5.05;;;4.30;;
43487;SDS011;29078;41.932;25.554;2023-04-03T03:39:26;6.45;;;4.05;;
43487;SDS011;29078;41.932;25.554;2023-04-03T03:41:51;8.30;;;4.97;;
43487;SDS011;29078;41.932;25.554;2023-04-03T03:44:18;6.63;;;4.57;;
43487;SDS011;29078;41.932;25.554;2023-04-03T03:46:44;6.60;;;4.55;;
43487;SDS011;29078;41.932;25.554;2023-04-03T03:49:10;9.07;;;4.65;;
43487;SDS011;29078;41.932;25.554;2023-04-03T03:51:36;7.00;;;4.75;;
43487;SDS011;29078;41.932;25.554;2023-04-03T03:54:02;10.38;;;4.60;;
43487;SDS011;29078;41.932;25.554;2023-04-03T03:56:28;5.38;;;4.88;;
43487;SDS011;29078;41.932;25.554;2023-04-03T03:58:54;8.27;;;5.40;;
43487;SDS011;29078;41.932;25.554;2023-04-03T04:01:21;9.80;;;6.03;;
43487;SDS011;29078;41.932;25.554;2023-04-03T04:03:47;10.57;;;5.55;;
43487;SDS011;29078;41.932;25.554;2023-04-03T04:06:13;8.32;;;5.45;;
43487;SDS011;29078;41.932;25.554;2023-04-03T04:08:38;10.15;;;5.63;;
43487;SDS011;29078;41.932;25.554;2023-04-03T04:11:04;6.47;;;4.85;;
43487;SDS011;29078;41.932;25.554;2023-04-03T04:13:30;6.00;;;4.70;;
43487;SDS011;29078;41.932;25.554;2023-04-03T04:15:55;9.00;;;5.35;;
43487;SDS011;29078;41.932;25.554;2023-04-03T04:18:21;8.30;;;5.35;;
43487;SDS011;29078;41.932;25.554;2023-04-03T04:20:47;8.40;;;5.47;;
43487;SDS011;29078;41.932;25.554;2023-04-03T04:23:13;11.70;;;8.35;;
43487;SDS011;29078;41.932;25.554;2023-04-03T04:25:39;10.20;;;7.57;;
43487;SDS011;29078;41.932;25.554;2023-04-03T04:28:05;10.73;;;6.57;;
43487;SDS011;29078;41.932;25.554;2023-04-03T04:30:30;8.77;;;5.85;;
43487;SDS011;29078;41.932;25.554;2023-04-03T04:32:56;9.88;;;7.05;;
43487;SDS011;29078;41.932;25.554;2023-04-03T04:35:21;10.77;;;7.18;;
43487;SDS011;29078;41.932;25.554;2023-04-03T04:37:46;17.70;;;12.50;;
43487;SDS011;29078;41.932;25.554;2023-04-03T04:40:12;26.27;;;17.77;;
43487;SDS011;29078;41.932;25.554;2023-04-03T04:42:37;27.85;;;20.15;;
43487;SDS011;29078;41.932;25.554;2023-04-03T04:45:03;24.55;;;17.20;;
43487;SDS011;29078;41.932;25.554;2023-04-03T04:47:28;24.25;;;15.32;;
43487;SDS011;29078;41.932;25.554;2023-04-03T04:49:54;17.17;;;12.82;;
43487;SDS011;29078;41.932;25.554;2023-04-03T04:52:20;15.75;;;12.27;;
43487;SDS011;29078;41.932;25.554;2023-04-03T04:54:45;17.38;;;12.80;;
43487;SDS011;29078;41.932;25.554;2023-04-03T04:57:11;16.20;;;11.30;;
43487;SDS011;29078;41.932;25.554;2023-04-03T04:59:36;18.77;;;11.07;;
43487;SDS011;29078;41.932;25.554;2023-04-03T05:02:02;15.35;;;9.85;;
43487;SDS011;29078;41.932;25.554;2023-04-03T05:04:27;16.58;;;10.63;;
43487;SDS011;29078;41.932;25.554;2023-04-03T05:06:53;17.55;;;12.40;;
43487;SDS011;29078;41.932;25.554;2023-04-03T05:09:19;23.42;;;15.60;;
43487;SDS011;29078;41.932;25.554;2023-04-03T05:11:45;19.25;;;12.68;;
43487;SDS011;29078;41.932;25.554;2023-04-03T05:14:11;19.70;;;12.02;;
43487;SDS011;29078;41.932;25.554;2023-04-03T05:16:36;19.65;;;12.23;;
43487;SDS011;29078;41.932;25.554;2023-04-03T05:19:02;19.85;;;13.52;;
43487;SDS011;29078;41.932;25.554;2023-04-03T05:21:28;20.17;;;13.20;;
43487;SDS011;29078;41.932;25.554;2023-04-03T05:23:57;17.48;;;13.20;;
43487;SDS011;29078;41.932;25.554;2023-04-03T05:26:23;23.27;;;14.60;;
43487;SDS011;29078;41.932;25.554;2023-04-03T05:28:49;22.65;;;15.45;;
43487;SDS011;29078;41.932;25.554;2023-04-03T05:31:14;17.48;;;13.57;;
43487;SDS011;29078;41.932;25.554;2023-04-03T05:33:40;22.13;;;14.68;;
43487;SDS011;29078;41.932;25.554;2023-04-03T05:36:05;19.08;;;13.40;;
43487;SDS011;29078;41.932;25.554;2023-04-03T05:38:31;15.25;;;10.50;;
43487;SDS011;29078;41.932;25.554;2023-04-03T05:40:57;19.10;;;13.63;;
43487;SDS011;29078;41.932;25.554;2023-04-03T05:43:23;19.55;;;12.52;;
43487;SDS011;29078;41.932;25.554;2023-04-03T05:45:48;23.50;;;15.77;;
43487;SDS011;29078;41.932;25.554;2023-04-03T05:48:14;22.35;;;14.68;;
43487;SDS011;29078;41.932;25.554;2023-04-03T05:50:39;19.80;;;13.23;;
43487;SDS011;29078;41.932;25.554;2023-04-03T05:53:07;19.33;;;14.48;;
43487;SDS011;29078;41.932;25.554;2023-04-03T05:55:40;32.28;;;19.88;;
43487;SDS011;29078;41.932;25.554;2023-04-03T05:58:06;33.83;;;23.42;;
43487;SDS011;29078;41.932;25.554;2023-04-03T06:00:31;25.27;;;17.83;;
43487;SDS011;29078;41.932;25.554;2023-04-03T06:02:57;21.63;;;15.13;;
43487;SDS011;29078;41.932;25.554;2023-04-03T06:05:22;18.33;;;13.18;;
43487;SDS011;29078;41.932;25.554;2023-04-03T06:07:48;21.52;;;12.75;;
43487;SDS011;29078;41.932;25.554;2023-04-03T06:10:14;19.80;;;10.98;;
43487;SDS011;29078;41.932;25.554;2023-04-03T06:12:40;13.80;;;8.93;;
43487;SDS011;29078;41.932;25.554;2023-04-03T06:15:06;14.70;;;8.75;;
43487;SDS011;29078;41.932;25.554;2023-04-03T06:17:34;11.35;;;8.13;;
43487;SDS011;29078;41.932;25.554;2023-04-03T06:20:01;12.30;;;8.00;;
43487;SDS011;29078;41.932;25.554;2023-04-03T06:22:27;13.60;;;7.57;;
43487;SDS011;29078;41.932;25.554;2023-04-03T06:24:54;12.95;;;8.63;;
43487;SDS011;29078;41.932;25.554;2023-04-03T06:27:20;15.93;;;9.68;;
43487;SDS011;29078;41.932;25.554;2023-04-03T06:29:45;13.52;;;9.95;;
43487;SDS011;29078;41.932;25.554;2023-04-03T06:32:11;17.63;;;10.13;;
43487;SDS011;29078;41.932;25.554;2023-04-03T06:34:36;16.60;;;10.48;;
43487;SDS011;29078;41.932;25.554;2023-04-03T06:37:03;14.52;;;10.68;;
43487;SDS011;29078;41.932;25.554;2023-04-03T06:39:28;14.88;;;11.35;;
43487;SDS011;29078;41.932;25.554;2023-04-03T06:41:54;15.77;;;12.02;;
43487;SDS011;29078;41.932;25.554;2023-04-03T06:44:20;15.52;;;10.77;;
43487;SDS011;29078;41.932;25.554;2023-04-03T06:46:45;13.55;;;11.70;;
43487;SDS011;29078;41.932;25.554;2023-04-03T06:49:11;17.48;;;12.15;;
43487;SDS011;29078;41.932;25.554;2023-04-03T06:51:37;15.68;;;11.75;;
43487;SDS011;29078;41.932;25.554;2023-04-03T06:54:03;15.90;;;10.70;;
43487;SDS011;29078;41.932;25.554;2023-04-03T06:56:30;16.00;;;10.48;;
43487;SDS011;29078;41.932;25.554;2023-04-03T06:58:55;7.25;;;5.32;;
43487;SDS011;29078;41.932;25.554;2023-04-03T07:01:22;7.25;;;4.80;;
43487;SDS011;29078;41.932;25.554;2023-04-03T07:03:51;8.00;;;6.60;;
43487;SDS011;29078;41.932;25.554;2023-04-03T07:06:17;6.65;;;4.90;;
43487;SDS011;29078;41.932;25.554;2023-04-03T07:08:43;7.38;;;4.55;;
43487;SDS011;29078;41.932;25.554;2023-04-03T07:11:10;6.88;;;4.72;;
43487;SDS011;29078;41.932;25.554;2023-04-03T07:13:37;8.75;;;6.25;;
43487;SDS011;29078;41.932;25.554;2023-04-03T07:16:03;10.48;;;6.72;;
43487;SDS011;29078;41.932;25.554;2023-04-03T07:18:30;11.88;;;8.00;;
43487;SDS011;29078;41.932;25.554;2023-04-03T07:20:56;11.15;;;7.00;;
43487;SDS011;29078;41.932;25.554;2023-04-03T07:23:22;11.27;;;6.85;;
43487;SDS011;29078;41.932;25.554;2023-04-03T07:25:49;9.82;;;5.53;;
43487;SDS011;29078;41.932;25.554;2023-04-03T07:28:16;13.23;;;5.30;;
43487;SDS011;29078;41.932;25.554;2023-04-03T07:30:46;12.68;;;6.20;;
43487;SDS011;29078;41.932;25.554;2023-04-03T07:33:13;8.30;;;5.20;;
43487;SDS011;29078;41.932;25.554;2023-04-03T07:35:40;7.47;;;5.07;;
43487;SDS011;29078;41.932;25.554;2023-04-03T07:38:06;7.82;;;4.90;;
43487;SDS011;29078;41.932;25.554;2023-04-03T07:40:32;9.25;;;6.70;;
43487;SDS011;29078;41.932;25.554;2023-04-03T07:42:58;9.52;;;6.65;;
43487;SDS011;29078;41.932;25.554;2023-04-03T07:45:23;11.27;;;7.25;;
43487;SDS011;29078;41.932;25.554;2023-04-03T07:47:49;8.48;;;7.60;;
43487;SDS011;29078;41.932;25.554;2023-04-03T07:50:15;10.07;;;6.57;;
43487;SDS011;29078;41.932;25.554;2023-04-03T07:52:41;10.30;;;5.47;;
43487;SDS011;29078;41.932;25.554;2023-04-03T07:55:07;7.78;;;5.35;;
43487;SDS011;29078;41.932;25.554;2023-04-03T07:57:32;10.32;;;6.70;;
43487;SDS011;29078;41.932;25.554;2023-04-03T07:59:58;10.13;;;8.68;;
43487;SDS011;29078;41.932;25.554;2023-04-03T08:02:23;9.98;;;6.63;;
43487;SDS011;29078;41.932;25.554;2023-04-03T08:04:49;13.25;;;7.45;;
43487;SDS011;29078;41.932;25.554;2023-04-03T08:07:15;14.82;;;8.60;;
43487;SDS011;29078;41.932;25.554;2023-04-03T08:09:40;33.05;;;10.07;;
43487;SDS011;29078;41.932;25.554;2023-04-03T08:12:06;67.80;;;13.45;;
43487;SDS011;29078;41.932;25.554;2023-04-03T08:14:32;34.40;;;13.77;;
43487;SDS011;29078;41.932;25.554;2023-04-03T08:16:59;24.20;;;13.70;;
43487;SDS011;29078;41.932;25.554;2023-04-03T08:19:25;30.60;;;18.95;;
43487;SDS011;29078;41.932;25.554;2023-04-03T08:21:51;20.63;;;12.20;;
43487;SDS011;29078;41.932;25.554;2023-04-03T08:24:18;16.05;;;9.65;;
43487;SDS011;29078;41.932;25.554;2023-04-03T08:26:44;19.55;;;9.45;;
43487;SDS011;29078;41.932;25.554;2023-04-03T08:29:09;17.83;;;8.35;;
43487;SDS011;29078;41.932;25.554;2023-04-03T08:31:34;13.82;;;7.43;;
43487;SDS011;29078;41.932;25.554;2023-04-03T08:34:00;18.80;;;8.57;;
43487;SDS011;29078;41.932;25.554;2023-04-03T08:36:26;21.05;;;9.07;;
43487;SDS011;29078;41.932;25.554;2023-04-03T08:38:53;13.27;;;7.30;;
43487;SDS011;29078;41.932;25.554;2023-04-03T08:46:32;13.48;;;7.78;;
43487;SDS011;29078;41.932;25.554;2023-04-03T08:49:15;15.02;;;8.20;;
43487;SDS011;29078;41.932;25.554;2023-04-03T08:51:48;18.08;;;8.88;;
43487;SDS011;29078;41.932;25.554;2023-04-03T08:54:31;15.27;;;9.93;;
43487;SDS011;29078;41.932;25.554;2023-04-03T08:56:59;18.88;;;9.13;;
43487;SDS011;29078;41.932;25.554;2023-04-03T08:59:29;13.50;;;7.85;;
43487;SDS011;29078;41.932;25.554;2023-04-03T09:01:59;13.65;;;9.80;;
43487;SDS011;29078;41.932;25.554;2023-04-03T09:04:32;12.98;;;7.65;;
43487;SDS011;29078;41.932;25.554;2023-04-03T09:07:00;11.18;;;7.20;;
43487;SDS011;29078;41.932;25.554;2023-04-03T09:09:36;10.65;;;6.13;;
43487;SDS011;29078;41.932;25.554;2023-04-03T09:22:55;9.93;;;5.55;;
43487;SDS011;29078;41.932;25.554;2023-04-03T09:25:54;10.70;;;7.00;;
43487;SDS011;29078;41.932;25.554;2023-04-03T09:28:13;8.45;;;6.47;;
43487;SDS011;29078;41.932;25.554;2023-04-03T09:30:38;10.52;;;6.38;;
43487;SDS011;29078;41.932;25.554;2023-04-03T09:33:04;9.10;;;6.55;;
43487;SDS011;29078;41.932;25.554;2023-04-03T09:35:31;8.70;;;6.75;;
43487;SDS011;29078;41.932;25.554;2023-04-03T09:37:59;12.73;;;7.13;;
43487;SDS011;29078;41.932;25.554;2023-04-03T09:40:42;12.55;;;7.70;;
43487;SDS011;29078;41.932;25.554;2023-04-03T09:45:42;11.73;;;9.18;;
43487;SDS011;29078;41.932;25.554;2023-04-03T09:48:09;18.40;;;10.95;;
43487;SDS011;29078;41.932;25.554;2023-04-03T09:53:30;12.65;;;8.85;;
43487;SDS011;29078;41.932;25.554;2023-04-03T09:55:56;14.20;;;9.50;;
43487;SDS011;29078;41.932;25.554;2023-04-03T09:58:23;10.68;;;8.15;;
43487;SDS011;29078;41.932;25.554;2023-04-03T10:01:00;13.13;;;8.82;;
43487;SDS011;29078;41.932;25.554;2023-04-03T10:03:28;14.90;;;8.95;;
43487;SDS011;29078;41.932;25.554;2023-04-03T10:05:59;12.65;;;9.30;;
43487;SDS011;29078;41.932;25.554;2023-04-03T10:13:54;17.23;;;8.85;;
43487;SDS011;29078;41.932;25.554;2023-04-03T10:21:50;10.57;;;7.97;;
43487;SDS011;29078;41.932;25.554;2023-04-03T10:24:33;11.82;;;8.38;;
43487;SDS011;29078;41.932;25.554;2023-04-03T10:27:25;12.30;;;8.35;;
43487;SDS011;29078;41.932;25.554;2023-04-03T10:43:33;18.38;;;13.73;;
43487;SDS011;29078;41.932;25.554;2023-04-03T10:46:15;20.40;;;14.32;;
43487;SDS011;29078;41.932;25.554;2023-04-03T10:54:54;27.20;;;18.90;;
43487;SDS011;29078;41.932;25.554;2023-04-03T10:57:22;15.88;;;8.68;;
43487;SDS011;29078;41.932;25.554;2023-04-03T10:59:51;10.10;;;6.63;;
43487;SDS011;29078;41.932;25.554;2023-04-03T11:02:25;14.32;;;7.68;;
43487;SDS011;29078;41.932;25.554;2023-04-03T11:04:58;11.90;;;7.30;;
43487;SDS011;29078;41.932;25.554;2023-04-03T11:07:34;14.60;;;7.50;;
43487;SDS011;29078;41.932;25.554;2023-04-03T11:15:54;13.23;;;8.88;;
43487;SDS011;29078;41.932;25.554;2023-04-03T11:18:35;11.60;;;8.35;;
43487;SDS011;29078;41.932;25.554;2023-04-03T11:23:46;15.45;;;8.93;;
43487;SDS011;29078;41.932;25.554;2023-04-03T11:26:13;13.18;;;9.85;;
43487;SDS011;29078;41.932;25.554;2023-04-03T11:28:45;13.23;;;9.85;;
43487;SDS011;29078;41.932;25.554;2023-04-03T11:39:58;14.68;;;8.98;;
43487;SDS011;29078;41.932;25.554;2023-04-03T11:42:38;15.38;;;9.90;;
43487;SDS011;29078;41.932;25.554;2023-04-03T11:45:16;14.00;;;9.70;;
43487;SDS011;29078;41.932;25.554;2023-04-03T12:11:15;16.00;;;11.45;;
43487;SDS011;29078;41.932;25.554;2023-04-03T12:21:15;17.25;;;13.38;;
43487;SDS011;29078;41.932;25.554;2023-04-03T12:23:57;18.33;;;14.27;;
43487;SDS011;29078;41.932;25.554;2023-04-03T12:26:41;17.45;;;12.95;;
43487;SDS011;29078;41.932;25.554;2023-04-03T12:47:24;19.02;;;15.82;;
43487;SDS011;29078;41.932;25.554;2023-04-03T12:49:53;13.93;;;11.50;;
43487;SDS011;29078;41.932;25.554;2023-04-03T12:52:30;19.90;;;13.98;;
43487;SDS011;29078;41.932;25.554;2023-04-03T12:55:00;17.80;;;11.55;;
43487;SDS011;29078;41.932;25.554;2023-04-03T12:57:29;12.35;;;9.70;;
43487;SDS011;29078;41.932;25.554;2023-04-03T12:59:55;13.32;;;10.05;;
43487;SDS011;29078;41.932;25.554;2023-04-03T13:04:56;15.63;;;11.52;;
43487;SDS011;29078;41.932;25.554;2023-04-03T13:07:33;14.98;;;11.05;;
43487;SDS011;29078;41.932;25.554;2023-04-03T13:10:09;15.55;;;11.48;;
43487;SDS011;29078;41.932;25.554;2023-04-03T13:15:30;15.88;;;11.07;;
43487;SDS011;29078;41.932;25.554;2023-04-03T13:18:20;14.73;;;10.25;;
43487;SDS011;29078;41.932;25.554;2023-04-03T13:20:47;14.18;;;10.38;;
43487;SDS011;29078;41.932;25.554;2023-04-03T13:23:14;15.65;;;11.93;;
43487;SDS011;29078;41.932;25.554;2023-04-03T13:25:45;15.15;;;11.15;;
43487;SDS011;29078;41.932;25.554;2023-04-03T13:28:13;15.55;;;11.63;;
43487;SDS011;29078;41.932;25.554;2023-04-03T13:33:35;18.92;;;12.98;;
43487;SDS011;29078;41.932;25.554;2023-04-03T13:36:17;19.08;;;13.18;;
43487;SDS011;29078;41.932;25.554;2023-04-03T13:38:45;17.88;;;13.35;;
43487;SDS011;29078;41.932;25.554;2023-04-03T13:41:23;20.00;;;13.85;;
43487;SDS011;29078;41.932;25.554;2023-04-03T13:43:55;17.88;;;14.50;;
43487;SDS011;29078;41.932;25.554;2023-04-03T13:46:22;25.88;;;16.60;;
43487;SDS011;29078;41.932;25.554;2023-04-03T13:48:53;23.92;;;16.80;;
43487;SDS011;29078;41.932;25.554;2023-04-03T13:53:53;23.65;;;17.50;;
43487;SDS011;29078;41.932;25.554;2023-04-03T13:56:38;22.55;;;17.08;;
43487;SDS011;29078;41.932;25.554;2023-04-03T14:01:38;24.90;;;18.25;;
43487;SDS011;29078;41.932;25.554;2023-04-03T14:04:18;26.83;;;20.50;;
43487;SDS011;29078;41.932;25.554;2023-04-03T14:06:46;23.42;;;17.63;;
43487;SDS011;29078;41.932;25.554;2023-04-03T14:09:13;22.80;;;17.42;;
43487;SDS011;29078;41.932;25.554;2023-04-03T14:11:39;23.38;;;17.63;;
43487;SDS011;29078;41.932;25.554;2023-04-03T14:14:23;26.50;;;17.27;;
43487;SDS011;29078;41.932;25.554;2023-04-03T14:16:53;26.45;;;19.13;;
43487;SDS011;29078;41.932;25.554;2023-04-03T14:19:28;23.05;;;18.08;;
43487;SDS011;29078;41.932;25.554;2023-04-03T14:21:57;26.58;;;20.10;;
43487;SDS011;29078;41.932;25.554;2023-04-03T14:24:23;30.30;;;19.73;;
43487;SDS011;29078;41.932;25.554;2023-04-03T14:26:49;28.95;;;20.45;;
43487;SDS011;29078;41.932;25.554;2023-04-03T14:29:19;25.45;;;18.85;;
43487;SDS011;29078;41.932;25.554;2023-04-03T14:31:47;24.45;;;19.65;;
43487;SDS011;29078;41.932;25.554;2023-04-03T14:34:15;26.45;;;17.80;;
43487;SDS011;29078;41.932;25.554;2023-04-03T14:36:41;23.00;;;17.15;;
43487;SDS011;29078;41.932;25.554;2023-04-03T14:39:08;22.30;;;16.60;;
43487;SDS011;29078;41.932;25.554;2023-04-03T14:41:40;31.15;;;20.48;;
43487;SDS011;29078;41.932;25.554;2023-04-03T14:44:06;29.38;;;21.20;;
43487;SDS011;29078;41.932;25.554;2023-04-03T14:46:33;34.58;;;22.00;;
43487;SDS011;29078;41.932;25.554;2023-04-03T14:49:01;32.60;;;22.50;;
43487;SDS011;29078;41.932;25.554;2023-04-03T14:51:27;37.83;;;26.17;;
43487;SDS011;29078;41.932;25.554;2023-04-03T14:53:52;30.30;;;20.23;;
43487;SDS011;29078;41.932;25.554;2023-04-03T14:56:22;29.42;;;18.88;;
43487;SDS011;29078;41.932;25.554;2023-04-03T14:58:52;23.60;;;15.48;;
43487;SDS011;29078;41.932;25.554;2023-04-03T15:01:21;24.13;;;16.38;;
43487;SDS011;29078;41.932;25.554;2023-04-03T15:03:46;22.70;;;15.13;;
43487;SDS011;29078;41.932;25.554;2023-04-03T15:06:12;20.77;;;15.82;;
43487;SDS011;29078;41.932;25.554;2023-04-03T15:08:39;22.20;;;16.63;;
43487;SDS011;29078;41.932;25.554;2023-04-03T15:11:07;27.65;;;18.63;;
43487;SDS011;29078;41.932;25.554;2023-04-03T15:13:33;24.92;;;18.90;;
43487;SDS011;29078;41.932;25.554;2023-04-03T15:15:58;26.42;;;18.85;;
43487;SDS011;29078;41.932;25.554;2023-04-03T15:18:25;27.80;;;21.02;;
43487;SDS011;29078;41.932;25.554;2023-04-03T15:20:54;29.00;;;21.83;;
43487;SDS011;29078;41.932;25.554;2023-04-03T15:23:20;28.88;;;21.48;;
43487;SDS011;29078;41.932;25.554;2023-04-03T15:25:51;22.27;;;15.80;;
43487;SDS011;29078;41.932;25.554;2023-04-03T15:28:19;21.58;;;16.67;;
43487;SDS011;29078;41.932;25.554;2023-04-03T15:30:50;25.17;;;19.30;;
43487;SDS011;29078;41.932;25.554;2023-04-03T15:33:16;22.65;;;16.73;;
43487;SDS011;29078;41.932;25.554;2023-04-03T15:35:42;24.42;;;17.38;;
43487;SDS011;29078;41.932;25.554;2023-04-03T15:38:07;19.17;;;15.32;;
43487;SDS011;29078;41.932;25.554;2023-04-03T15:40:33;19.40;;;14.27;;
43487;SDS011;29078;41.932;25.554;2023-04-03T15:42:58;19.90;;;14.65;;
43487;SDS011;29078;41.932;25.554;2023-04-03T15:45:24;19.30;;;14.13;;
43487;SDS011;29078;41.932;25.554;2023-04-03T15:47:50;24.67;;;15.18;;
43487;SDS011;29078;41.932;25.554;2023-04-03T15:50:16;20.17;;;15.27;;
43487;SDS011;29078;41.932;25.554;2023-04-03T15:52:41;26.30;;;19.45;;
43487;SDS011;29078;41.932;25.554;2023-04-03T15:55:07;24.35;;;19.25;;
43487;SDS011;29078;41.932;25.554;2023-04-03T15:57:32;25.77;;;19.05;;
43487;SDS011;29078;41.932;25.554;2023-04-03T15:59:58;26.40;;;19.63;;
43487;SDS011;29078;41.932;25.554;2023-04-03T16:02:23;28.38;;;19.67;;
43487;SDS011;29078;41.932;25.554;2023-04-03T16:04:52;22.65;;;18.70;;
43487;SDS011;29078;41.932;25.554;2023-04-03T16:07:19;23.67;;;18.42;;
43487;SDS011;29078;41.932;25.554;2023-04-03T16:09:44;26.55;;;19.73;;
43487;SDS011;29078;41.932;25.554;2023-04-03T16:12:10;25.27;;;18.83;;
43487;SDS011;29078;41.932;25.554;2023-04-03T16:14:35;23.15;;;18.67;;
43487;SDS011;29078;41.932;25.554;2023-04-03T16:17:01;27.73;;;19.92;;
43487;SDS011;29078;41.932;25.554;2023-04-03T16:19:26;29.23;;;21.00;;
43487;SDS011;29078;41.932;25.554;2023-04-03T16:21:52;30.52;;;21.85;;
43487;SDS011;29078;41.932;25.554;2023-04-03T16:24:19;28.60;;;20.98;;
43487;SDS011;29078;41.932;25.554;2023-04-03T16:26:44;28.95;;;21.50;;
43487;SDS011;29078;41.932;25.554;2023-04-03T16:29:10;28.90;;;18.60;;
43487;SDS011;29078;41.932;25.554;2023-04-03T16:31:35;24.45;;;17.75;;
43487;SDS011;29078;41.932;25.554;2023-04-03T16:34:01;27.30;;;20.73;;
43487;SDS011;29078;41.932;25.554;2023-04-03T16:36:27;30.63;;;20.95;;
43487;SDS011;29078;41.932;25.554;2023-04-03T16:38:53;30.08;;;22.00;;
43487;SDS011;29078;41.932;25.554;2023-04-03T16:41:18;32.20;;;22.92;;
43487;SDS011;29078;41.932;25.554;2023-04-03T16:43:43;37.67;;;26.48;;